createdAt,value
2022-11-24T00:00:34.504Z,97704.22
2022-11-24T00:01:36.069Z,97701.13
2022-11-24T00:02:37.579Z,97706.66
2022-11-24T00:03:39.099Z,97699.84
2022-11-24T00:04:40.561Z,97700.41
2022-11-24T00:05:42.001Z,97708.31
2022-11-24T00:06:43.455Z,97705.53
2022-11-24T00:07:45.005Z,97711.06
2022-11-24T00:08:46.837Z,97701.91
2022-11-24T00:09:48.382Z,97711.16
2022-11-24T00:10:49.907Z,97712.56
2022-11-24T00:11:51.384Z,97710.69
2022-11-24T00:12:52.790Z,97714.88
2022-11-24T00:13:54.225Z,97717.22
2022-11-24T00:14:55.769Z,97712.75
2022-11-24T00:16:04.003Z,97715.06
2022-11-24T00:17:05.447Z,97714.78
2022-11-24T00:18:06.878Z,97719.25
2022-11-24T00:19:09.429Z,97717.41
2022-11-24T00:20:10.968Z,97719.25
2022-11-24T00:21:12.611Z,97715.56
2022-11-24T00:22:14.079Z,97721.31
2022-11-24T00:23:15.530Z,97716.84
2022-11-24T00:24:17.036Z,97719.47
2022-11-24T00:25:18.487Z,97720.25
2022-11-24T00:26:27.649Z,97718.84
2022-11-24T00:27:29.147Z,97724.13
2022-11-24T00:28:31.702Z,97719.66
2022-11-24T00:29:33.112Z,97720.72
2022-11-24T00:30:34.582Z,97719.94
2022-11-24T00:31:37.122Z,97724.31
2022-11-24T00:32:38.586Z,97717.81
2022-11-24T00:33:40.039Z,97716.22
2022-11-24T00:34:41.505Z,97723.66
2022-11-24T00:35:42.942Z,97730.78
2022-11-24T00:36:44.380Z,97724.72
2022-11-24T00:37:45.833Z,97723.19
2022-11-24T00:38:47.745Z,97721.59
2022-11-24T00:39:49.184Z,97730.28
2022-11-24T00:40:51.140Z,97728.44
2022-11-24T00:41:52.685Z,97723.19
2022-11-24T00:42:54.155Z,97734.19
2022-11-24T00:43:55.670Z,97735.28
2022-11-24T00:44:57.115Z,97725.81
2022-11-24T00:45:58.691Z,97733.72
2022-11-24T00:47:00.506Z,97726.88
2022-11-24T00:48:02.089Z,97740.03
2022-11-24T00:49:03.898Z,97744.53
2022-11-24T00:50:07.691Z,97742.19
2022-11-24T00:51:10.501Z,97743.28
2022-11-24T00:52:11.910Z,97745.91
2022-11-24T00:53:13.396Z,97747.47
2022-11-24T00:54:14.910Z,97745.91
2022-11-24T00:55:16.364Z,97758.88
2022-11-24T00:56:17.818Z,97750.50
2022-11-24T00:57:19.315Z,97748.91
2022-11-24T00:58:21.305Z,97762.38
2022-11-24T00:59:22.675Z,97753.13
2022-11-24T01:00:24.049Z,97759.66
2022-11-24T01:01:26.692Z,97761.22
2022-11-24T01:02:28.250Z,97758.09
2022-11-24T01:03:29.721Z,97763.94
2022-11-24T01:04:31.383Z,97757.13
2022-11-24T01:05:36.165Z,97761.91
2022-11-24T01:06:37.604Z,97763.47
2022-11-24T01:07:39.215Z,97762.88
2022-11-24T01:08:41.408Z,97764.16
2022-11-24T01:09:43.402Z,97760.94
2022-11-24T01:10:45.018Z,97767.25
2022-11-24T01:11:46.480Z,97766.00
2022-11-24T01:12:47.977Z,97762.59
2022-11-24T01:13:51.237Z,97766.56
2022-11-24T01:14:52.819Z,97771.06
2022-11-24T01:15:54.384Z,97768.44
2022-11-24T01:16:56.314Z,97774.78
2022-11-24T01:17:57.759Z,97770.28
2022-11-24T01:18:59.202Z,97768.44
2022-11-24T01:20:00.629Z,97773.41
2022-11-24T01:21:08.521Z,97776.34
2022-11-24T01:22:11.379Z,97772.81
2022-11-24T01:23:12.764Z,97777.78
2022-11-24T01:24:14.519Z,97783.06
2022-11-24T01:25:16.171Z,97781.03
2022-11-24T01:26:18.808Z,97785.00
2022-11-24T01:27:20.271Z,97785.50
2022-11-24T01:28:21.698Z,97788.41
2022-11-24T01:29:23.305Z,97782.88
2022-11-24T01:30:24.806Z,97778.66
2022-11-24T01:31:26.836Z,97778.66
2022-11-24T01:32:28.475Z,97780.53
2022-11-24T01:33:30.014Z,97784.91
2022-11-24T01:34:31.640Z,97783.34
2022-11-24T01:35:33.231Z,97788.63
2022-11-24T01:36:34.763Z,97793.59
2022-11-24T01:37:36.223Z,97795.44
2022-11-24T01:38:37.668Z,97794.88
2022-11-24T01:39:39.281Z,97784.03
2022-11-24T01:40:40.750Z,97789.03
2022-11-24T01:41:42.182Z,97791.94
2022-11-24T01:42:47.721Z,97789.81
2022-11-24T01:43:50.302Z,97786.56
2022-11-24T01:45:15.040Z,97787.34
2022-11-24T01:46:16.515Z,97791.56
2022-11-24T01:47:35.890Z,97777.31
2022-11-24T01:48:40.799Z,97794.97
2022-11-24T01:49:48.663Z,97780.25
2022-11-24T01:50:53.194Z,97789.97
2022-11-24T01:51:54.713Z,97785.22
2022-11-24T01:52:56.669Z,97779.94
2022-11-24T01:54:04.580Z,97784.59
2022-11-24T01:55:08.301Z,97785.13
2022-11-24T01:56:11.022Z,97791.63
2022-11-24T01:57:19.735Z,97783.47
2022-11-24T01:58:24.163Z,97787.94
2022-11-24T01:59:26.554Z,97791.06
2022-11-24T02:00:28.004Z,97789.72
2022-11-24T02:01:29.526Z,97790.19
2022-11-24T02:02:31.199Z,97792.50
2022-11-24T02:03:35.367Z,97800.16
2022-11-24T02:04:37.080Z,97798.75
2022-11-24T02:05:45.232Z,97797.69
2022-11-24T02:06:48.161Z,97802.66
2022-11-24T02:07:50.282Z,97807.63
2022-11-24T02:09:06.002Z,97803.63
2022-11-24T02:10:10.645Z,97802.56
2022-11-24T02:11:12.092Z,97795.25
2022-11-24T02:12:13.528Z,97808.50
2022-11-24T02:13:15.382Z,97807.91
2022-11-24T02:14:18.528Z,97802.34
2022-11-24T02:15:20.116Z,97796.00
2022-11-24T02:16:21.552Z,97798.63
2022-11-24T02:17:22.966Z,97809.66
2022-11-24T02:18:24.464Z,97800.19
2022-11-24T02:19:37.300Z,97801.75
2022-11-24T02:20:38.771Z,97806.75
2022-11-24T02:21:40.287Z,97801.28
2022-11-24T02:22:44.497Z,97810.72
2022-11-24T02:23:51.290Z,97817.56
2022-11-24T02:24:55.589Z,97805.97
2022-11-24T02:26:02.991Z,97812.78
2022-11-24T02:27:04.518Z,97820.69
2022-11-24T02:28:07.703Z,97818.06
2022-11-24T02:29:09.923Z,97812.00
2022-11-24T02:30:11.591Z,97813.25
2022-11-24T02:31:13.564Z,97819.03
2022-11-24T02:32:15.925Z,97812.19
2022-11-24T02:33:17.362Z,97815.91
2022-11-24T02:34:18.797Z,97824.59
2022-11-24T02:35:20.556Z,97821.47
2022-11-24T02:36:22.061Z,97815.63
2022-11-24T02:37:23.512Z,97827.41
2022-11-24T02:38:32.466Z,97819.50
2022-11-24T02:39:34.017Z,97815.78
2022-11-24T02:40:35.534Z,97819.19
2022-11-24T02:41:37.393Z,97816.56
2022-11-24T02:42:42.796Z,97814.75
2022-11-24T02:43:49.480Z,97813.66
2022-11-24T02:44:53.160Z,97811.03
2022-11-24T02:45:54.856Z,97812.56
2022-11-24T02:47:03.341Z,97812.56
2022-11-24T02:48:04.996Z,97813.34
2022-11-24T02:49:06.483Z,97806.22
2022-11-24T02:50:08.062Z,97813.34
2022-11-24T02:51:09.485Z,97816.00
2022-11-24T02:52:11.015Z,97817.06
2022-11-24T02:53:12.441Z,97814.44
2022-11-24T02:54:13.925Z,97806.63
2022-11-24T02:55:15.477Z,97812.09
2022-11-24T02:56:16.930Z,97813.47
2022-11-24T02:57:18.354Z,97809.75
2022-11-24T02:58:19.863Z,97822.44
2022-11-24T02:59:21.340Z,97821.69
2022-11-24T03:00:22.894Z,97827.22
2022-11-24T03:01:24.464Z,97821.00
2022-11-24T03:02:26.101Z,97831.72
2022-11-24T03:03:27.884Z,97829.09
2022-11-24T03:04:29.457Z,97834.66
2022-11-24T03:05:30.998Z,97835.13
2022-11-24T03:06:32.429Z,97830.63
2022-11-24T03:07:33.984Z,97833.28
2022-11-24T03:08:35.428Z,97836.22
2022-11-24T03:09:37.079Z,97831.25
2022-11-24T03:10:39.924Z,97828.91
2022-11-24T03:11:41.357Z,97833.69
2022-11-24T03:12:42.900Z,97825.88
2022-11-24T03:13:44.396Z,97833.31
2022-11-24T03:14:45.882Z,97842.78
2022-11-24T03:15:47.386Z,97836.22
2022-11-24T03:16:48.871Z,97839.94
2022-11-24T03:17:50.441Z,97840.25
2022-11-24T03:18:52.163Z,97836.06
2022-11-24T03:19:53.601Z,97841.91
2022-11-24T03:20:59.145Z,97835.06
2022-11-24T03:22:00.695Z,97845.88
2022-11-24T03:23:02.221Z,97845.88
2022-11-24T03:24:03.973Z,97845.88
2022-11-24T03:25:05.617Z,97849.91
2022-11-24T03:26:11.288Z,97845.50
2022-11-24T03:27:12.797Z,97847.66
2022-11-24T03:28:14.272Z,97850.31
2022-11-24T03:29:15.694Z,97842.19
2022-11-24T03:30:17.333Z,97852.53
2022-11-24T03:31:18.920Z,97838.59
2022-11-24T03:32:20.354Z,97848.44
2022-11-24T03:33:21.853Z,97844.81
2022-11-24T03:34:23.293Z,97855.94
2022-11-24T03:35:24.764Z,97852.81
2022-11-24T03:36:26.281Z,97858.66
2022-11-24T03:37:27.761Z,97852.91
2022-11-24T03:38:29.363Z,97859.44
2022-11-24T03:39:32.772Z,97858.19
2022-11-24T03:40:34.208Z,97861.88
2022-11-24T03:41:35.656Z,97863.94
2022-11-24T03:42:37.109Z,97865.78
2022-11-24T03:43:43.521Z,97870.78
2022-11-24T03:44:45.665Z,97866.56
2022-11-24T03:45:47.962Z,97863.34
2022-11-24T03:46:49.448Z,97868.84
2022-11-24T03:47:51.365Z,97866.19
2022-11-24T03:48:52.884Z,97872.50
2022-11-24T03:49:54.326Z,97871.75
2022-11-24T03:50:57.408Z,97875.16
2022-11-24T03:52:02.579Z,97877.50
2022-11-24T03:53:06.651Z,97873.31
2022-11-24T03:54:08.114Z,97877.50
2022-11-24T03:55:09.708Z,97875.09
2022-11-24T03:56:11.191Z,97872.94
2022-11-24T03:57:12.707Z,97874.00
2022-11-24T03:58:14.150Z,97876.44
2022-11-24T03:59:15.590Z,97877.50
2022-11-24T04:00:17.342Z,97874.56
2022-11-24T04:01:18.837Z,97876.13
2022-11-24T04:02:23.373Z,97871.66
2022-11-24T04:03:24.879Z,97879.06
2022-11-24T04:04:26.307Z,97879.28
2022-11-24T04:05:27.814Z,97875.88
2022-11-24T04:06:29.257Z,97875.88
2022-11-24T04:07:30.820Z,97881.91
2022-11-24T04:08:32.276Z,97874.78
2022-11-24T04:09:33.707Z,97885.53
2022-11-24T04:10:36.145Z,97882.91
2022-11-24T04:11:37.525Z,97884.66
2022-11-24T04:12:38.964Z,97879.09
2022-11-24T04:13:40.406Z,97886.38
2022-11-24T04:14:41.747Z,97883.19
2022-11-24T04:15:43.637Z,97886.59
2022-11-24T04:16:45.303Z,97885.03
2022-11-24T04:17:47.359Z,97877.13
2022-11-24T04:18:51.358Z,97885.50
2022-11-24T04:19:52.816Z,97879.19
2022-11-24T04:20:54.237Z,97879.19
2022-11-24T04:21:55.688Z,97882.88
2022-11-24T04:22:57.051Z,97881.84
2022-11-24T04:23:58.560Z,97891.09
2022-11-24T04:25:00.016Z,97889.53
2022-11-24T04:26:01.541Z,97888.16
2022-11-24T04:27:02.982Z,97896.34
2022-11-24T04:28:04.531Z,97899.28
2022-11-24T04:29:06.089Z,97895.38
2022-11-24T04:30:07.941Z,97893.03
2022-11-24T04:31:09.474Z,97892.75
2022-11-24T04:32:10.994Z,97896.94
2022-11-24T04:33:12.551Z,97898.31
2022-11-24T04:34:13.957Z,97899.38
2022-11-24T04:35:15.366Z,97899.09
2022-11-24T04:36:16.781Z,97900.66
2022-11-24T04:37:18.147Z,97906.69
2022-11-24T04:39:23.680Z,97901.72
2022-11-24T04:39:40.968Z,97905.44
2022-11-24T04:40:42.399Z,97907.78
2022-11-24T04:41:43.756Z,97905.13
2022-11-24T04:42:52.056Z,97912.56
2022-11-24T04:43:53.520Z,97910.59
2022-11-24T04:44:54.920Z,97909.84
2022-11-24T04:45:56.366Z,97903.00
2022-11-24T04:46:58.173Z,97909.06
2022-11-24T04:47:59.649Z,97906.91
2022-11-24T04:49:01.421Z,97900.84
2022-11-24T04:50:02.835Z,97901.16
2022-11-24T04:51:04.937Z,97899.56
2022-11-24T04:52:06.361Z,97896.25
2022-11-24T04:53:07.774Z,97897.91
2022-11-24T04:54:10.862Z,97892.94
2022-11-24T04:55:12.303Z,97896.16
2022-11-24T04:56:13.653Z,97896.94
2022-11-24T04:57:15.918Z,97905.91
2022-11-24T04:58:17.346Z,97894.59
2022-11-24T04:59:19.229Z,97902.81
2022-11-24T05:00:20.697Z,97892.84
2022-11-24T05:01:22.116Z,97902.03
2022-11-24T05:02:23.956Z,97906.78
2022-11-24T05:03:25.460Z,97904.44
2022-11-24T05:04:26.933Z,97903.97
2022-11-24T05:05:28.445Z,97904.44
2022-11-24T05:06:29.927Z,97904.75
2022-11-24T05:07:31.647Z,97909.50
2022-11-24T05:08:33.176Z,97916.34
2022-11-24T05:09:58.094Z,97908.44
2022-11-24T05:10:56.053Z,97911.56
2022-11-24T05:11:57.573Z,97913.13
2022-11-24T05:12:59.021Z,97912.34
2022-11-24T05:14:00.784Z,97919.38
2022-11-24T05:15:03.691Z,97919.09
2022-11-24T05:16:05.396Z,97917.84
2022-11-24T05:17:06.873Z,97935.19
2022-11-24T05:18:09.203Z,97932.09
2022-11-24T05:19:10.831Z,97929.16
2022-11-24T05:20:12.305Z,97933.63
2022-11-24T05:21:13.919Z,97930.50
2022-11-24T05:22:15.273Z,97927.09
2022-11-24T05:23:16.706Z,97931.78
2022-11-24T05:24:18.065Z,97927.84
2022-11-24T05:25:19.500Z,97927.84
2022-11-24T05:26:20.913Z,97931.28
2022-11-24T05:27:22.378Z,97933.13
2022-11-24T05:28:23.821Z,97930.50
2022-11-24T05:29:25.544Z,97924.44
2022-11-24T05:30:27.600Z,97928.84
2022-11-24T05:31:29.153Z,97929.06
2022-11-24T05:32:30.608Z,97931.38
2022-11-24T05:33:32.234Z,97936.19
2022-11-24T05:34:34.035Z,97934.13
2022-11-24T05:35:36.657Z,97941.72
2022-11-24T05:36:38.120Z,97934.41
2022-11-24T05:37:39.527Z,97936.66
2022-11-24T05:38:40.967Z,97940.06
2022-11-24T05:39:42.513Z,97939.28
2022-11-24T05:40:44.359Z,97934.03
2022-11-24T05:41:45.812Z,97937.06
2022-11-24T05:42:48.338Z,97937.34
2022-11-24T05:43:50.013Z,97938.13
2022-11-24T05:44:52.021Z,97936.00
2022-11-24T05:45:53.508Z,97936.31
2022-11-24T05:46:55.014Z,97932.59
2022-11-24T05:48:03.562Z,97931.81
2022-11-24T05:49:05.025Z,97932.84
2022-11-24T05:50:06.851Z,97937.34
2022-11-24T05:51:09.549Z,97932.38
2022-11-24T05:52:11.097Z,97935.00
2022-11-24T05:53:13.124Z,97927.09
2022-11-24T05:54:14.677Z,97925.56
2022-11-24T05:55:16.069Z,97933.47
2022-11-24T05:56:17.544Z,97930.81
2022-11-24T05:57:19.108Z,97937.06
2022-11-24T05:58:20.696Z,97932.06
2022-11-24T05:59:22.286Z,97933.66
2022-11-24T06:00:23.715Z,97930.53
2022-11-24T06:01:25.060Z,97928.28
2022-11-24T06:02:26.611Z,97931.09
2022-11-24T06:03:28.211Z,97925.38
2022-11-24T06:04:29.646Z,97928.88
2022-11-24T06:05:31.121Z,97926.53
2022-11-24T06:06:32.567Z,97927.59
2022-11-24T06:07:34.013Z,97929.16
2022-11-24T06:08:35.371Z,97927.31
2022-11-24T06:09:37.146Z,97930.22
2022-11-24T06:10:38.846Z,97929.34
2022-11-24T06:11:40.200Z,97932.84
2022-11-24T06:12:41.623Z,97937.34
2022-11-24T06:13:44.057Z,97937.06
2022-11-24T06:14:45.724Z,97934.22
2022-11-24T06:15:47.307Z,97937.94
2022-11-24T06:16:48.795Z,97938.50
2022-11-24T06:17:54.250Z,97936.66
2022-11-24T06:18:55.691Z,97940.06
2022-11-24T06:19:57.127Z,97936.97
2022-11-24T06:21:10.375Z,97936.97
2022-11-24T06:22:12.607Z,97941.72
2022-11-24T06:23:14.147Z,97943.22
2022-11-24T06:24:15.487Z,97944.28
2022-11-24T06:25:17.260Z,97947.97
2022-11-24T06:26:18.676Z,97952.78
2022-11-24T06:27:20.217Z,97951.47
2022-11-24T06:28:21.678Z,97953.63
2022-11-24T06:29:23.018Z,97951.00
2022-11-24T06:30:24.399Z,97955.72
2022-11-24T06:31:25.777Z,97952.25
2022-11-24T06:32:27.179Z,97958.03
2022-11-24T06:33:32.359Z,97959.38
2022-11-24T06:34:33.860Z,97959.31
2022-11-24T06:35:35.449Z,97959.59
2022-11-24T06:36:37.350Z,97957.47
2022-11-24T06:37:38.753Z,97968.00
2022-11-24T06:38:40.193Z,97963.00
2022-11-24T06:39:41.561Z,97966.34
2022-11-24T06:40:42.850Z,97977.38
2022-11-24T06:41:44.239Z,97971.34
2022-11-24T06:42:49.628Z,97968.69
2022-11-24T06:43:50.966Z,97976.59
2022-11-24T06:44:52.384Z,97975.81
2022-11-24T06:45:53.797Z,97976.59
2022-11-24T06:46:55.152Z,97980.28
2022-11-24T06:47:56.510Z,97986.06
2022-11-24T06:48:57.902Z,97982.94
2022-11-24T06:49:59.281Z,97987.31
2022-11-24T06:51:11.193Z,97993.09
2022-11-24T06:52:12.653Z,97993.88
2022-11-24T06:53:14.180Z,97981.50
2022-11-24T06:54:16.408Z,97983.03
2022-11-24T06:55:17.756Z,97985.88
2022-11-24T06:56:19.804Z,97990.59
2022-11-24T06:57:21.134Z,97983.94
2022-11-24T06:58:22.489Z,97986.19
2022-11-24T06:59:23.850Z,97981.13
2022-11-24T07:00:25.376Z,97987.94
2022-11-24T07:01:27.669Z,97992.66
2022-11-24T07:02:29.039Z,98000.56
2022-11-24T07:03:30.414Z,97994.97
2022-11-24T07:04:31.884Z,98003.56
2022-11-24T07:05:33.493Z,98002.22
2022-11-24T07:06:34.807Z,98001.16
2022-11-24T07:07:36.259Z,98012.19
2022-11-24T07:08:37.624Z,98008.97
2022-11-24T07:09:39.006Z,98016.88
2022-11-24T07:10:40.392Z,98018.16
2022-11-24T07:11:42.045Z,98018.63
2022-11-24T07:12:43.437Z,98024.41
2022-11-24T07:13:45.146Z,98019.91
2022-11-24T07:14:46.492Z,98019.63
2022-11-24T07:15:47.870Z,98018.84
2022-11-24T07:16:49.293Z,98023.34
2022-11-24T07:17:50.700Z,98025.97
2022-11-24T07:18:52.945Z,98023.03
2022-11-24T07:19:54.278Z,98025.38
2022-11-24T07:20:55.659Z,98031.94
2022-11-24T07:21:57.070Z,98034.56
2022-11-24T07:22:58.791Z,98036.91
2022-11-24T07:24:00.188Z,98041.91
2022-11-24T07:25:01.662Z,98044.28
2022-11-24T07:26:06.747Z,98047.91
2022-11-24T07:27:08.541Z,98056.78
2022-11-24T07:28:09.904Z,98052.28
2022-11-24T07:29:11.301Z,98062.34
2022-11-24T07:30:12.812Z,98057.84
2022-11-24T07:31:18.193Z,98054.44
2022-11-24T07:32:19.742Z,98060.00
2022-11-24T07:33:21.104Z,98067.91
2022-11-24T07:34:22.473Z,98070.09
2022-11-24T07:35:23.872Z,98076.31
2022-11-24T07:36:25.286Z,98068.69
2022-11-24T07:37:31.268Z,98071.13
2022-11-24T07:38:33.738Z,98078.00
2022-11-24T07:39:35.064Z,98087.94
2022-11-24T07:40:36.439Z,98087.16
2022-11-24T07:41:37.833Z,98089.03
2022-11-24T07:42:39.240Z,98092.44
2022-11-24T07:43:40.820Z,98090.59
2022-11-24T07:44:42.168Z,98090.38
2022-11-24T07:45:43.583Z,98091.38
2022-11-24T07:46:44.949Z,98086.09
2022-11-24T07:47:46.340Z,98090.88
2022-11-24T07:48:47.791Z,98093.84
2022-11-24T07:49:49.136Z,98093.03
2022-11-24T07:50:55.504Z,98087.75
2022-11-24T07:51:57.532Z,98090.59
2022-11-24T07:53:04.844Z,98094.31
2022-11-24T07:54:06.316Z,98094.31
2022-11-24T07:55:07.921Z,98087.75
2022-11-24T07:56:09.735Z,98095.88
2022-11-24T07:57:11.095Z,98092.66
2022-11-24T07:58:12.459Z,98090.78
2022-11-24T07:59:13.767Z,98097.53
2022-11-24T08:00:15.208Z,98100.69
2022-11-24T08:01:17.527Z,98095.19
2022-11-24T08:02:19.025Z,98087.28
2022-11-24T08:03:20.695Z,98080.72
2022-11-24T08:04:22.112Z,98072.81
2022-11-24T08:05:23.512Z,98074.97
2022-11-24T08:06:28.550Z,98077.59
2022-11-24T08:07:32.874Z,98077.91
2022-11-24T08:08:34.413Z,98076.31
2022-11-24T08:09:35.775Z,98076.03
2022-11-24T08:10:37.142Z,98074.75
2022-11-24T08:11:38.536Z,98077.41
2022-11-24T08:12:41.041Z,98084.44
2022-11-24T08:13:42.866Z,98082.09
2022-11-24T08:14:44.190Z,98076.53
2022-11-24T08:15:45.878Z,98082.31
2022-11-24T08:16:47.283Z,98086.00
2022-11-24T08:17:48.685Z,98092.34
2022-11-24T08:18:50.983Z,98084.44
2022-11-24T08:19:52.356Z,98088.63
2022-11-24T08:20:53.730Z,98093.13
2022-11-24T08:21:55.080Z,98099.97
2022-11-24T08:22:57.138Z,98099.97
2022-11-24T08:23:58.490Z,98101.56
2022-11-24T08:24:59.848Z,98100.78
2022-11-24T08:26:08.503Z,98102.03
2022-11-24T08:27:09.895Z,98097.53
2022-11-24T08:28:11.245Z,98111.22
2022-11-24T08:29:12.643Z,98107.78
2022-11-24T08:30:14.184Z,98114.66
2022-11-24T08:31:17.102Z,98109.06
2022-11-24T08:32:22.214Z,98109.56
2022-11-24T08:33:23.855Z,98114.06
2022-11-24T08:34:25.971Z,98111.41
2022-11-24T08:35:27.796Z,98110.63
2022-11-24T08:36:29.208Z,98116.41
2022-11-24T08:37:30.590Z,98107.41
2022-11-24T08:38:32.095Z,98108.50
2022-11-24T08:39:33.718Z,98104.97
2022-11-24T08:40:35.114Z,98108.09
2022-11-24T08:41:36.489Z,98111.53
2022-11-24T08:42:37.894Z,98122.06
2022-11-24T08:43:39.294Z,98123.47
2022-11-24T08:44:40.595Z,98130.56
2022-11-24T08:45:42.182Z,98127.66
2022-11-24T08:46:44.203Z,98124.25
2022-11-24T08:47:45.636Z,98124.50
2022-11-24T08:48:47.810Z,98125.28
2022-11-24T08:49:49.119Z,98123.47
2022-11-24T08:50:50.437Z,98124.25
2022-11-24T08:51:51.801Z,98134.97
2022-11-24T08:52:53.636Z,98127.34
2022-11-24T08:53:55.812Z,98122.38
2022-11-24T08:54:57.151Z,98125.78
2022-11-24T08:56:01.319Z,98130.00
2022-11-24T08:57:02.679Z,98130.28
2022-11-24T08:58:04.073Z,98123.47
2022-11-24T08:59:05.488Z,98121.88
2022-11-24T09:00:07.220Z,98129.78
2022-11-24T09:01:10.148Z,98135.56
2022-11-24T09:02:11.828Z,98131.66
2022-11-24T09:03:13.223Z,98128.22
2022-11-24T09:04:14.670Z,98138.31
2022-11-24T09:05:49.619Z,98128.53
2022-11-24T09:06:37.457Z,98134.88
2022-11-24T09:07:38.870Z,98143.59
2022-11-24T09:08:40.640Z,98135.16
2022-11-24T09:09:41.984Z,98138.88
2022-11-24T09:10:43.384Z,98145.25
2022-11-24T09:11:44.769Z,98154.25
2022-11-24T09:12:47.170Z,98149.53
2022-11-24T09:13:48.537Z,98147.47
2022-11-24T09:14:49.937Z,98152.25
2022-11-24T09:15:51.598Z,98154.13
2022-11-24T09:16:53.154Z,98158.81
2022-11-24T09:17:54.600Z,98156.38
2022-11-24T09:19:00.678Z,98151.59
2022-11-24T09:20:02.497Z,98147.09
2022-11-24T09:21:06.956Z,98152.38
2022-11-24T09:22:08.309Z,98153.84
2022-11-24T09:23:09.693Z,98161.38
2022-11-24T09:24:11.045Z,98159.44
2022-11-24T09:25:12.458Z,98163.03
2022-11-24T09:26:15.712Z,98159.03
2022-11-24T09:27:17.117Z,98156.59
2022-11-24T09:28:18.468Z,98168.94
2022-11-24T09:29:19.863Z,98166.00
2022-11-24T09:30:21.312Z,98178.31
2022-11-24T09:31:23.997Z,98174.03
2022-11-24T09:32:25.434Z,98176.72
2022-11-24T09:33:26.772Z,98183.31
2022-11-24T09:34:28.153Z,98182.22
2022-11-24T09:35:29.497Z,98182.91
2022-11-24T09:36:30.929Z,98180.75
2022-11-24T09:37:33.042Z,98178.91
2022-11-24T09:38:34.609Z,98185.25
2022-11-24T09:39:36.305Z,98185.44
2022-11-24T09:40:37.925Z,98191.22
2022-11-24T09:41:44.671Z,98183.19
2022-11-24T09:43:04.952Z,98197.38
2022-11-24T09:44:25.268Z,98197.28
2022-11-24T09:47:16.389Z,98198.53
2022-11-24T09:48:26.910Z,98198.84
2022-11-24T09:49:51.101Z,98198.53
2022-11-24T09:50:53.522Z,98202.72
2022-11-24T09:51:56.147Z,98199.81
2022-11-24T09:53:02.661Z,98207.75
2022-11-24T09:54:11.736Z,98211.38
2022-11-24T09:55:35.979Z,98217.22
2022-11-24T09:56:38.704Z,98217.22
2022-11-24T09:57:41.963Z,98217.44
2022-11-24T09:58:45.677Z,98218.31
2022-11-24T09:59:47.260Z,98221.06
2022-11-24T10:00:49.816Z,98216.56
2022-11-24T10:01:51.886Z,98221.22
2022-11-24T10:02:53.413Z,98223.88
2022-11-24T10:03:54.913Z,98217.53
2022-11-24T10:04:56.393Z,98217.22
2022-11-24T10:05:59.200Z,98224.56
2022-11-24T10:07:12.847Z,98225.63
2022-11-24T10:08:41.956Z,98224.75
2022-11-24T10:09:49.489Z,98231.13
2022-11-24T10:10:57.255Z,98225.34
2022-11-24T10:11:58.576Z,98230.66
2022-11-24T10:13:06.938Z,98224.84
2022-11-24T10:14:17.561Z,98223.78
2022-11-24T10:15:18.983Z,98228.47
2022-11-24T10:16:42.325Z,98226.03
2022-11-24T10:17:46.314Z,98219.06
2022-11-24T10:19:03.172Z,98230.13
2022-11-24T10:20:26.893Z,98226.13
2022-11-24T10:21:40.297Z,98222.59
2022-11-24T10:22:41.624Z,98223.84
2022-11-24T10:23:54.330Z,98226.69
2022-11-24T10:24:58.461Z,98227.94
2022-11-24T10:26:00.697Z,98233.41
2022-11-24T10:27:18.383Z,98229.69
2022-11-24T10:28:19.739Z,98231.75
2022-11-24T10:29:26.386Z,98230.97
2022-11-24T10:30:28.245Z,98225.25
2022-11-24T10:31:41.503Z,98232.88
2022-11-24T10:32:45.529Z,98223.41
2022-11-24T10:33:47.581Z,98226.81
2022-11-24T10:34:49.206Z,98224.47
2022-11-24T10:35:50.541Z,98225.75
2022-11-24T10:37:03.868Z,98226.81
2022-11-24T10:38:11.333Z,98226.34
2022-11-24T10:39:36.428Z,98230.34
2022-11-24T10:41:04.160Z,98232.22
2022-11-24T10:42:11.646Z,98232.88
2022-11-24T10:43:13.066Z,98230.25
2022-11-24T10:44:14.460Z,98231.22
2022-11-24T10:45:17.422Z,98228.75
2022-11-24T10:46:26.341Z,98234.53
2022-11-24T10:47:28.043Z,98230.97
2022-11-24T10:48:37.205Z,98233.81
2022-11-24T10:49:38.604Z,98235.38
2022-11-24T10:50:41.271Z,98227.75
2022-11-24T10:51:42.568Z,98231.94
2022-11-24T10:52:50.128Z,98231.94
2022-11-24T10:53:55.283Z,98228.53
2022-11-24T10:55:05.893Z,98232.25
2022-11-24T10:56:07.243Z,98234.59
2022-11-24T10:57:08.586Z,98227.94
2022-11-24T10:58:16.589Z,98234.19
2022-11-24T10:59:20.832Z,98227.41
2022-11-24T11:00:22.196Z,98228.66
2022-11-24T11:01:32.735Z,98226.19
2022-11-24T11:02:38.181Z,98231.97
2022-11-24T11:03:50.711Z,98228.72
2022-11-24T11:04:52.259Z,98227.66
2022-11-24T11:05:55.954Z,98232.63
2022-11-24T11:07:17.027Z,98237.34
2022-11-24T11:08:19.840Z,98218.81
2022-11-24T11:09:21.892Z,98226.25
2022-11-24T11:10:24.053Z,98218.50
2022-11-24T11:11:29.499Z,98221.91
2022-11-24T11:12:46.142Z,98222.38
2022-11-24T11:13:47.558Z,98225.53
2022-11-24T11:14:48.896Z,98225.22
2022-11-24T11:15:50.858Z,98230.19
2022-11-24T11:16:53.773Z,98224.00
2022-11-24T11:17:59.693Z,98232.25
2022-11-24T11:19:01.837Z,98228.53
2022-11-24T11:20:21.541Z,98226.66
2022-11-24T11:21:38.681Z,98227.63
2022-11-24T11:22:43.039Z,98231.66
2022-11-24T11:23:44.971Z,98229.03
2022-11-24T11:24:47.125Z,98228.69
2022-11-24T11:25:48.526Z,98219.66
2022-11-24T11:26:58.776Z,98234.00
2022-11-24T11:28:16.499Z,98217.81
2022-11-24T11:35:01.112Z,98221.03
2022-11-24T11:36:08.081Z,98222.59
2022-11-24T11:37:11.884Z,98219.38
2022-11-24T11:38:13.322Z,98219.38
2022-11-24T11:39:17.396Z,98219.03
2022-11-24T11:40:22.484Z,98215.81
2022-11-24T11:41:35.781Z,98225.16
2022-11-24T11:43:02.522Z,98218.66
2022-11-24T11:44:23.518Z,98220.88
2022-11-24T11:45:28.020Z,98225.56
2022-11-24T11:46:30.982Z,98226.03
2022-11-24T11:47:44.441Z,98225.72
2022-11-24T11:48:47.277Z,98223.38
2022-11-24T11:49:49.253Z,98230.25
2022-11-24T11:51:23.965Z,98235.25
2022-11-24T11:52:38.033Z,98232.88
2022-11-24T11:53:58.213Z,98231.34
2022-11-24T11:55:12.362Z,98233.53
2022-11-24T11:56:19.738Z,98223.69
2022-11-24T11:57:21.065Z,98214.19
2022-11-24T11:58:22.744Z,98228.41
2022-11-24T11:59:27.662Z,98221.72
2022-11-24T12:00:30.357Z,98227.81
2022-11-24T12:01:50.426Z,98232.59
2022-11-24T12:03:04.802Z,98228.91
2022-11-24T12:04:30.191Z,98229.66
2022-11-24T12:05:35.017Z,98239.50
2022-11-24T12:06:46.675Z,98228.09
2022-11-24T12:07:57.367Z,98237.31
2022-11-24T12:09:21.401Z,98238.09
2022-11-24T12:10:30.094Z,98238.09
2022-11-24T12:11:31.429Z,98238.09
2022-11-24T12:12:48.142Z,98239.50
2022-11-24T12:13:52.668Z,98234.84
2022-11-24T12:15:10.238Z,98240.13
2022-11-24T12:16:32.407Z,98238.13
2022-11-24T12:17:48.509Z,98239.53
2022-11-24T12:18:59.004Z,98243.31
2022-11-24T12:20:33.141Z,98241.91
2022-11-24T12:21:55.085Z,98244.22
2022-11-24T12:22:57.101Z,98243.44
2022-11-24T12:24:01.228Z,98246.88
2022-11-24T12:25:11.077Z,98247.84
2022-11-24T12:26:22.535Z,98247.84
2022-11-24T12:27:33.142Z,98256.84
2022-11-24T12:28:37.242Z,98254.84
2022-11-24T12:29:42.781Z,98255.94
2022-11-24T12:30:56.485Z,98253.09
2022-11-24T12:32:03.711Z,98255.78
2022-11-24T12:33:11.591Z,98255.63
2022-11-24T12:34:12.974Z,98251.06